TimeMDT,TemperatureF,Dew PointF,Humidity,Sea Level PressureIn,VisibilityMPH,Wind Direction,Wind SpeedMPH,Gust SpeedMPH,PrecipitationIn,Events,Conditions,WindDirDegrees,DateUTC
12:53 AM,77.0,46.0,33,29.90,10.0,ENE,19.6,26.5,N/A,,Clear,60,2013-07-26 06:53:00
1:53 AM,73.9,46.0,37,29.91,10.0,South,8.1,-,N/A,,Clear,180,2013-07-26 07:53:00
2:53 AM,70.0,46.9,44,29.93,10.0,NW,3.5,-,N/A,,Clear,320,2013-07-26 08:53:00
3:53 AM,70.0,46.9,44,29.93,10.0,Calm,Calm,-,N/A,,Clear,0,2013-07-26 09:53:00
4:53 AM,70.0,46.9,44,29.95,10.0,Calm,Calm,-,N/A,,Clear,0,2013-07-26 10:53:00
5:53 AM,66.9,45.0,45,29.96,10.0,Calm,Calm,-,N/A,,Clear,0,2013-07-26 11:53:00
6:53 AM,66.9,46.9,49,29.99,10.0,Calm,Calm,-,N/A,,Clear,0,2013-07-26 12:53:00
7:53 AM,71.1,50.0,47,29.99,10.0,Calm,Calm,-,N/A,,Clear,0,2013-07-26 13:53:00
8:53 AM,77.0,46.9,34,30.01,10.0,Calm,Calm,-,N/A,,Clear,0,2013-07-26 14:53:00
9:53 AM,80.1,48.0,32,30.00,10.0,SSE,11.5,-,N/A,,Clear,150,2013-07-26 15:53:00
10:53 AM,82.9,46.0,27,29.99,10.0,SSE,12.7,-,N/A,,Clear,160,2013-07-26 16:53:00
11:53 AM,86.0,46.0,25,29.97,10.0,SSE,5.8,-,N/A,,Clear,150,2013-07-26 17:53:00
12:53 PM,90.0,45.0,21,29.94,10.0,SSW,8.1,-,N/A,,Clear,210,2013-07-26 18:53:00
1:53 PM,93.0,37.9,15,29.92,10.0,West,6.9,-,N/A,,Clear,270,2013-07-26 19:53:00
2:53 PM,95.0,37.0,13,29.90,10.0,WNW,8.1,-,N/A,,Clear,290,2013-07-26 20:53:00
3:53 PM,95.0,37.0,13,29.88,10.0,WSW,8.1,-,N/A,,Clear,250,2013-07-26 21:53:00
4:53 PM,96.1,41.0,15,29.85,10.0,WSW,10.4,-,N/A,,Partly Cloudy,240,2013-07-26 22:53:00
5:53 PM,95.0,39.0,14,29.84,10.0,West,8.1,-,N/A,,Partly Cloudy,280,2013-07-26 23:53:00
6:53 PM,93.9,37.9,14,29.82,10.0,SW,8.1,-,N/A,,Partly Cloudy,230,2013-07-27 00:53:00
7:53 PM,91.9,37.0,15,29.81,10.0,SE,4.6,-,N/A,,Clear,140,2013-07-27 01:53:00
8:53 PM,84.9,39.0,20,29.82,10.0,ESE,5.8,-,N/A,,Clear,110,2013-07-27 02:53:00
9:53 PM,82.9,37.9,20,29.83,10.0,Calm,Calm,-,N/A,,Clear,0,2013-07-27 03:53:00
10:53 PM,75.0,37.0,25,29.85,10.0,ENE,3.5,-,N/A,,Clear,70,2013-07-27 04:53:00
11:53 PM,75.9,37.9,25,29.84,10.0,East,5.8,-,N/A,,Clear,100,2013-07-27 05:53:00